createdAt,value
2018-02-22T00:00:59.502Z,1006.10
2018-02-22T00:01:59.471Z,1006.15
2018-02-22T00:02:59.509Z,1006.15
2018-02-22T00:03:59.434Z,1006.19
2018-02-22T00:04:59.411Z,1006.18
2018-02-22T00:05:59.597Z,1006.13
2018-02-22T00:06:59.373Z,1006.17
2018-02-22T00:07:59.354Z,1006.16
2018-02-22T00:08:59.364Z,1006.13
2018-02-22T00:09:59.317Z,1006.12
2018-02-22T00:10:59.297Z,1006.13
2018-02-22T00:11:59.289Z,1006.09
2018-02-22T00:12:59.277Z,1006.09
2018-02-22T00:13:59.243Z,1006.11
2018-02-22T00:14:59.275Z,1006.07
2018-02-22T00:15:59.204Z,1006.09
2018-02-22T00:16:59.185Z,1006.06
2018-02-22T00:17:59.209Z,1006.03
2018-02-22T00:18:59.147Z,1006.05
2018-02-22T00:19:59.128Z,1006.02
2018-02-22T00:20:59.133Z,1006.03
2018-02-22T00:21:59.091Z,1006.06
2018-02-22T00:22:59.071Z,1006.04
2018-02-22T00:23:59.057Z,1006.03
2018-02-22T00:24:59.034Z,1006.04
2018-02-22T00:25:59.016Z,1006.01
2018-02-22T00:26:58.996Z,1006.02
2018-02-22T00:27:58.977Z,1006.03
2018-02-22T00:28:58.961Z,1005.99
2018-02-22T00:29:58.940Z,1005.99
2018-02-22T00:30:58.921Z,1005.96
2018-02-22T00:31:58.932Z,1005.98
2018-02-22T00:32:58.883Z,1005.91
2018-02-22T00:33:58.897Z,1005.96
2018-02-22T00:34:58.851Z,1005.91
2018-02-22T00:35:58.857Z,1005.86
2018-02-22T00:36:58.814Z,1005.88
2018-02-22T00:37:58.789Z,1005.90
2018-02-22T00:38:58.783Z,1005.90
2018-02-22T00:39:58.750Z,1005.85
2018-02-22T00:40:58.732Z,1005.85
2018-02-22T00:41:58.713Z,1005.88
2018-02-22T00:42:58.693Z,1005.88
2018-02-22T00:43:58.675Z,1005.88
2018-02-22T00:44:58.661Z,1005.85
2018-02-22T00:45:58.650Z,1005.90
2018-02-22T00:46:58.619Z,1005.89
2018-02-22T00:47:58.625Z,1005.91
2018-02-22T00:48:58.580Z,1005.86
2018-02-22T00:49:58.565Z,1005.83
2018-02-22T00:50:58.551Z,1005.87
2018-02-22T00:51:58.523Z,1005.81
2018-02-22T00:52:58.504Z,1005.83
2018-02-22T00:53:58.485Z,1005.81
2018-02-22T00:54:58.465Z,1005.82
2018-02-22T00:55:58.450Z,1005.82
2018-02-22T00:56:58.428Z,1005.78
2018-02-22T00:57:58.409Z,1005.82
2018-02-22T00:58:58.392Z,1005.81
2018-02-22T00:59:58.371Z,1005.79
2018-02-22T01:00:58.352Z,1005.80
2018-02-22T01:01:58.334Z,1005.77
2018-02-22T01:02:58.314Z,1005.82
2018-02-22T01:03:58.295Z,1005.80
2018-02-22T01:04:58.276Z,1005.77
2018-02-22T01:05:58.257Z,1005.78
2018-02-22T01:06:58.238Z,1005.77
2018-02-22T01:07:58.222Z,1005.72
2018-02-22T01:08:58.210Z,1005.72
2018-02-22T01:09:58.212Z,1005.73
2018-02-22T01:10:58.178Z,1005.76
2018-02-22T01:11:58.143Z,1005.76
2018-02-22T01:12:58.145Z,1005.79
2018-02-22T01:13:58.105Z,1005.78
2018-02-22T01:14:58.084Z,1005.74
2018-02-22T01:15:58.071Z,1005.74
2018-02-22T01:16:58.047Z,1005.77
2018-02-22T01:17:58.028Z,1005.79
2018-02-22T01:18:58.016Z,1005.75
2018-02-22T01:19:57.989Z,1005.77
2018-02-22T01:20:57.978Z,1005.77
2018-02-22T01:21:57.976Z,1005.75
2018-02-22T01:22:57.939Z,1005.81
2018-02-22T01:23:57.913Z,1005.79
2018-02-22T01:24:57.912Z,1005.80
2018-02-22T01:25:57.876Z,1005.79
2018-02-22T01:26:57.856Z,1005.78
2018-02-22T01:27:57.837Z,1005.75
2018-02-22T01:28:57.819Z,1005.80
2018-02-22T01:29:57.800Z,1005.80
2018-02-22T01:30:57.780Z,1005.76
2018-02-22T01:31:57.761Z,1005.77
2018-02-22T01:32:57.742Z,1005.76
2018-02-22T01:33:57.727Z,1005.71
2018-02-22T01:34:57.704Z,1005.72
2018-02-22T01:35:57.685Z,1005.72
2018-02-22T01:36:57.669Z,1005.72
2018-02-22T01:37:57.647Z,1005.72
2018-02-22T01:38:57.631Z,1005.71
2018-02-22T01:39:57.608Z,1005.66
2018-02-22T01:40:57.589Z,1005.69
2018-02-22T01:41:57.570Z,1005.69
2018-02-22T01:42:57.551Z,1005.67
2018-02-22T01:43:57.532Z,1005.62
2018-02-22T01:44:57.513Z,1005.68
2018-02-22T01:45:57.511Z,1005.68
2018-02-22T01:46:57.479Z,1005.66
2018-02-22T01:47:57.675Z,1005.64
2018-02-22T01:48:57.444Z,1005.67
2018-02-22T01:49:57.419Z,1005.63
2018-02-22T01:50:57.449Z,1005.64
2018-02-22T01:51:57.379Z,1005.66
2018-02-22T01:52:57.361Z,1005.67
2018-02-22T01:53:57.373Z,1005.66
2018-02-22T01:54:57.321Z,1005.62
2018-02-22T01:55:57.303Z,1005.66
2018-02-22T01:56:57.302Z,1005.69
2018-02-22T01:57:57.284Z,1005.66
2018-02-22T01:58:57.253Z,1005.66
2018-02-22T01:59:57.236Z,1005.63
2018-02-22T02:00:57.208Z,1005.67
2018-02-22T02:01:57.396Z,1005.66
2018-02-22T02:02:57.170Z,1005.64
2018-02-22T02:03:57.150Z,1005.65
2018-02-22T02:04:57.164Z,1005.62
2018-02-22T02:05:57.112Z,1005.65
2018-02-22T02:06:57.092Z,1005.68
2018-02-22T02:07:57.092Z,1005.69
2018-02-22T02:08:57.054Z,1005.64
2018-02-22T02:09:57.035Z,1005.63
2018-02-22T02:10:57.021Z,1005.62
2018-02-22T02:11:56.996Z,1005.65
2018-02-22T02:12:56.977Z,1005.60
2018-02-22T02:13:56.960Z,1005.64
2018-02-22T02:14:56.938Z,1005.63
2018-02-22T02:15:56.919Z,1005.63
2018-02-22T02:16:56.900Z,1005.56
2018-02-22T02:17:56.881Z,1005.60
2018-02-22T02:18:56.861Z,1005.58
2018-02-22T02:19:56.842Z,1005.55
2018-02-22T02:20:56.842Z,1005.57
2018-02-22T02:21:56.812Z,1005.52
2018-02-22T02:22:56.809Z,1005.54
2018-02-22T02:23:56.774Z,1005.54
2018-02-22T02:24:56.746Z,1005.52
2018-02-22T02:25:56.743Z,1005.54
2018-02-22T02:26:56.707Z,1005.52
2018-02-22T02:27:56.687Z,1005.55
2018-02-22T02:28:56.674Z,1005.51
2018-02-22T02:29:56.650Z,1005.55
2018-02-22T02:30:56.629Z,1005.52
2018-02-22T02:31:56.611Z,1005.54
2018-02-22T02:32:56.592Z,1005.56
2018-02-22T02:33:56.578Z,1005.56
2018-02-22T02:34:56.582Z,1005.57
2018-02-22T02:35:56.549Z,1005.56
2018-02-22T02:36:56.515Z,1005.56
2018-02-22T02:37:56.509Z,1005.55
2018-02-22T02:38:56.474Z,1005.54
2018-02-22T02:39:56.456Z,1005.54
2018-02-22T02:40:56.438Z,1005.55
2018-02-22T02:41:56.417Z,1005.51
2018-02-22T02:42:56.397Z,1005.50
2018-02-22T02:43:56.377Z,1005.50
2018-02-22T02:44:56.359Z,1005.49
2018-02-22T02:45:56.339Z,1005.47
2018-02-22T02:46:56.321Z,1005.49
2018-02-22T02:47:56.307Z,1005.47
2018-02-22T02:48:56.281Z,1005.46
2018-02-22T02:49:56.261Z,1005.43
2018-02-22T02:50:56.242Z,1005.43
2018-02-22T02:51:56.228Z,1005.41
2018-02-22T02:52:56.202Z,1005.41
2018-02-22T02:53:56.183Z,1005.41
2018-02-22T02:54:56.163Z,1005.38
2018-02-22T02:55:56.144Z,1005.38
2018-02-22T02:56:56.125Z,1005.35
2018-02-22T02:57:56.106Z,1005.35
2018-02-22T02:58:56.096Z,1005.37
2018-02-22T02:59:56.066Z,1005.31
2018-02-22T03:00:56.069Z,1005.32
2018-02-22T03:01:56.031Z,1005.27
2018-02-22T03:02:56.064Z,1005.31
2018-02-22T03:03:55.996Z,1005.33
2018-02-22T03:04:55.971Z,1005.36
2018-02-22T03:05:56.161Z,1005.31
2018-02-22T03:06:55.933Z,1005.35
2018-02-22T03:07:55.911Z,1005.32
2018-02-22T03:08:55.924Z,1005.29
2018-02-22T03:09:55.872Z,1005.28
2018-02-22T03:10:55.851Z,1005.25
2018-02-22T03:11:55.855Z,1005.26
2018-02-22T03:12:55.836Z,1005.27
2018-02-22T03:13:55.796Z,1005.27
2018-02-22T03:14:55.793Z,1005.28
2018-02-22T03:15:55.762Z,1005.28
2018-02-22T03:16:55.736Z,1005.27
2018-02-22T03:17:55.923Z,1005.27
2018-02-22T03:18:55.696Z,1005.26
2018-02-22T03:19:55.677Z,1005.23
2018-02-22T03:20:55.689Z,1005.23
2018-02-22T03:21:55.638Z,1005.24
2018-02-22T03:22:55.620Z,1005.26
2018-02-22T03:23:55.617Z,1005.25
2018-02-22T03:24:55.579Z,1005.27
2018-02-22T03:25:55.560Z,1005.27
2018-02-22T03:26:55.540Z,1005.27
2018-02-22T03:27:55.525Z,1005.24
2018-02-22T03:28:55.501Z,1005.25
2018-02-22T03:29:55.482Z,1005.23
2018-02-22T03:30:55.462Z,1005.18
2018-02-22T03:31:55.442Z,1005.20
2018-02-22T03:32:55.423Z,1005.23
2018-02-22T03:33:55.404Z,1005.21
2018-02-22T03:34:55.384Z,1005.22
2018-02-22T03:35:55.364Z,1005.19
2018-02-22T03:36:55.345Z,1005.19
2018-02-22T03:37:55.328Z,1005.22
2018-02-22T03:38:55.335Z,1005.19
2018-02-22T03:39:55.299Z,1005.22
2018-02-22T03:40:55.266Z,1005.19
2018-02-22T03:41:55.269Z,1005.18
2018-02-22T03:42:55.226Z,1005.17
2018-02-22T03:43:55.207Z,1005.14
2018-02-22T03:44:55.199Z,1005.11
2018-02-22T03:45:55.171Z,1005.16
2018-02-22T03:46:55.148Z,1005.09
2018-02-22T03:47:55.129Z,1005.13
2018-02-22T03:48:55.110Z,1005.13
2018-02-22T03:49:55.090Z,1005.17
2018-02-22T03:50:55.070Z,1005.16
2018-02-22T03:51:55.063Z,1005.16
2018-02-22T03:52:55.031Z,1005.17
2018-02-22T03:53:55.036Z,1005.21
2018-02-22T03:54:54.993Z,1005.21
2018-02-22T03:55:54.972Z,1005.20
2018-02-22T03:56:54.962Z,1005.18
2018-02-22T03:57:54.933Z,1005.19
2018-02-22T03:58:54.913Z,1005.16
2018-02-22T03:59:54.894Z,1005.19
2018-02-22T04:00:54.901Z,1005.15
2018-02-22T04:01:54.854Z,1005.13
2018-02-22T04:02:54.834Z,1005.16
2018-02-22T04:03:54.827Z,1005.15
2018-02-22T04:04:54.796Z,1005.18
2018-02-22T04:05:54.777Z,1005.17
2018-02-22T04:06:54.758Z,1005.21
2018-02-22T04:07:54.737Z,1005.23
2018-02-22T04:08:54.717Z,1005.23
2018-02-22T04:09:54.699Z,1005.23
2018-02-22T04:10:54.677Z,1005.23
2018-02-22T04:11:54.658Z,1005.22
2018-02-22T04:12:54.638Z,1005.25
2018-02-22T04:13:54.619Z,1005.21
2018-02-22T04:14:54.598Z,1005.21
2018-02-22T04:15:54.578Z,1005.20
2018-02-22T04:16:54.563Z,1005.19
2018-02-22T04:17:54.543Z,1005.20
2018-02-22T04:18:54.548Z,1005.20
2018-02-22T04:19:54.511Z,1005.22
2018-02-22T04:20:54.480Z,1005.24
2018-02-22T04:21:54.481Z,1005.24
2018-02-22T04:22:54.441Z,1005.21
2018-02-22T04:23:54.424Z,1005.24
2018-02-22T04:24:54.408Z,1005.26
2018-02-22T04:25:54.382Z,1005.26
2018-02-22T04:26:54.362Z,1005.26
2018-02-22T04:27:54.342Z,1005.29
2018-02-22T04:28:54.323Z,1005.27
2018-02-22T04:29:54.303Z,1005.28
2018-02-22T04:30:54.285Z,1005.32
2018-02-22T04:31:54.278Z,1005.30
2018-02-22T04:32:54.246Z,1005.30
2018-02-22T04:33:54.247Z,1005.33
2018-02-22T04:34:54.204Z,1005.36
2018-02-22T04:35:54.184Z,1005.34
2018-02-22T04:36:54.175Z,1005.36
2018-02-22T04:37:54.145Z,1005.36
2018-02-22T04:38:54.125Z,1005.36
2018-02-22T04:39:54.105Z,1005.41
2018-02-22T04:40:54.085Z,1005.38
2018-02-22T04:41:54.066Z,1005.41
2018-02-22T04:42:54.046Z,1005.40
2018-02-22T04:43:54.026Z,1005.43
2018-02-22T04:44:54.006Z,1005.47
2018-02-22T04:45:53.988Z,1005.41
2018-02-22T04:46:53.966Z,1005.41
2018-02-22T04:47:53.946Z,1005.43
2018-02-22T04:48:53.926Z,1005.38
2018-02-22T04:49:53.910Z,1005.41
2018-02-22T04:50:53.887Z,1005.43
2018-02-22T04:51:53.866Z,1005.41
2018-02-22T04:52:53.847Z,1005.41
2018-02-22T04:53:53.828Z,1005.43
2018-02-22T04:54:53.807Z,1005.46
2018-02-22T04:55:53.787Z,1005.43
2018-02-22T04:56:53.768Z,1005.43
2018-02-22T04:57:53.747Z,1005.45
2018-02-22T04:58:53.727Z,1005.53
2018-02-22T04:59:53.724Z,1005.51
2018-02-22T05:00:53.693Z,1005.49
2018-02-22T05:01:53.722Z,1005.48
2018-02-22T05:02:53.657Z,1005.43
2018-02-22T05:03:53.632Z,1005.44
2018-02-22T05:04:53.658Z,1005.47
2018-02-22T05:05:53.589Z,1005.47
2018-02-22T05:06:53.569Z,1005.44
2018-02-22T05:07:53.601Z,1005.50
2018-02-22T05:08:53.530Z,1005.46
2018-02-22T05:09:53.510Z,1005.44
2018-02-22T05:10:53.514Z,1005.43
2018-02-22T05:11:53.470Z,1005.47
2018-02-22T05:12:53.458Z,1005.46
2018-02-22T05:13:53.442Z,1005.52
2018-02-22T05:14:53.426Z,1005.46
2018-02-22T05:15:53.390Z,1005.49
2018-02-22T05:16:53.585Z,1005.46
2018-02-22T05:17:53.352Z,1005.48
2018-02-22T05:18:53.331Z,1005.50
2018-02-22T05:19:53.357Z,1005.51
2018-02-22T05:20:53.291Z,1005.55
2018-02-22T05:21:53.271Z,1005.51
2018-02-22T05:22:53.279Z,1005.51
2018-02-22T05:23:53.233Z,1005.57
2018-02-22T05:24:53.212Z,1005.50
2018-02-22T05:25:53.206Z,1005.52
2018-02-22T05:26:53.172Z,1005.57
2018-02-22T05:27:53.152Z,1005.51
2018-02-22T05:28:53.136Z,1005.59
2018-02-22T05:29:53.116Z,1005.61
2018-02-22T05:30:53.092Z,1005.62
2018-02-22T05:31:53.076Z,1005.61
2018-02-22T05:32:53.053Z,1005.60
2018-02-22T05:33:53.034Z,1005.59
2018-02-22T05:34:53.071Z,1005.63
2018-02-22T05:35:53.005Z,1005.63
2018-02-22T05:36:53.005Z,1005.66
2018-02-22T05:37:52.956Z,1005.65
2018-02-22T05:38:52.934Z,1005.67
2018-02-22T05:39:52.933Z,1005.68
2018-02-22T05:40:52.894Z,1005.66
2018-02-22T05:41:52.879Z,1005.68
2018-02-22T05:42:52.854Z,1005.66
2018-02-22T05:43:52.834Z,1005.70
2018-02-22T05:44:52.815Z,1005.64
2018-02-22T05:45:52.795Z,1005.70
2018-02-22T05:46:52.774Z,1005.69
2018-02-22T05:47:52.755Z,1005.68
2018-02-22T05:48:52.735Z,1005.66
2018-02-22T05:49:52.717Z,1005.68
2018-02-22T05:50:52.695Z,1005.67
2018-02-22T05:51:52.675Z,1005.71
2018-02-22T05:52:52.655Z,1005.71
2018-02-22T05:53:52.635Z,1005.67
2018-02-22T05:54:52.615Z,1005.70
2018-02-22T05:55:52.595Z,1005.68
2018-02-22T05:56:52.576Z,1005.76
2018-02-22T05:57:52.560Z,1005.72
2018-02-22T05:58:52.534Z,1005.75
2018-02-22T05:59:52.515Z,1005.75
2018-02-22T06:00:52.496Z,1005.79
2018-02-22T06:01:52.476Z,1005.79
2018-02-22T06:02:52.455Z,1005.79
2018-02-22T06:03:52.467Z,1005.81
2018-02-22T06:04:52.429Z,1005.81
2018-02-22T06:05:52.396Z,1005.77
2018-02-22T06:06:52.423Z,1005.80
2018-02-22T06:07:52.361Z,1005.80
2018-02-22T06:08:52.344Z,1005.79
2018-02-22T06:09:52.363Z,1005.82
2018-02-22T06:10:52.330Z,1005.80
2018-02-22T06:11:52.275Z,1005.84
2018-02-22T06:12:52.256Z,1005.83
2018-02-22T06:13:52.299Z,1005.86
2018-02-22T06:14:52.216Z,1005.84
2018-02-22T06:15:52.196Z,1005.86
2018-02-22T06:16:52.182Z,1005.88
2018-02-22T06:17:52.156Z,1005.83
2018-02-22T06:18:52.136Z,1005.86
2018-02-22T06:19:52.116Z,1005.83
2018-02-22T06:20:52.095Z,1005.84
2018-02-22T06:21:52.077Z,1005.88
2018-02-22T06:22:52.056Z,1005.85
2018-02-22T06:23:52.036Z,1005.87
2018-02-22T06:24:52.020Z,1005.85
2018-02-22T06:25:51.996Z,1005.85
2018-02-22T06:26:51.975Z,1005.85
2018-02-22T06:27:51.996Z,1005.85
2018-02-22T06:28:51.941Z,1005.89
2018-02-22T06:29:51.979Z,1005.85
2018-02-22T06:30:51.895Z,1005.87
2018-02-22T06:31:51.875Z,1005.85
2018-02-22T06:32:51.856Z,1005.89
2018-02-22T06:33:51.841Z,1005.88
2018-02-22T06:34:51.816Z,1005.88
2018-02-22T06:35:51.795Z,1005.90
2018-02-22T06:36:51.882Z,1005.90
2018-02-22T06:37:51.756Z,1005.88
2018-02-22T06:38:51.735Z,1005.92
2018-02-22T06:39:51.768Z,1005.92
2018-02-22T06:40:51.696Z,1005.95
2018-02-22T06:41:51.678Z,1005.96
2018-02-22T06:42:51.701Z,1005.94
2018-02-22T06:43:51.635Z,1005.93
2018-02-22T06:44:51.908Z,1005.93
2018-02-22T06:45:51.641Z,1005.94
2018-02-22T06:46:51.575Z,1005.98
2018-02-22T06:47:51.555Z,1005.98
2018-02-22T06:48:51.550Z,1006.00
2018-02-22T06:49:51.522Z,1005.99
2018-02-22T06:50:51.495Z,1006.00
2018-02-22T06:51:51.475Z,1006.03
2018-02-22T06:52:51.455Z,1006.02
2018-02-22T06:53:51.436Z,1006.07
2018-02-22T06:54:51.416Z,1006.05
2018-02-22T06:55:51.395Z,1006.10
2018-02-22T06:56:51.375Z,1006.11
2018-02-22T06:57:51.356Z,1006.12
2018-02-22T06:58:51.339Z,1006.06
2018-02-22T06:59:51.316Z,1006.09
2018-02-22T07:00:51.297Z,1006.04
2018-02-22T07:01:51.276Z,1006.11
2018-02-22T07:02:51.256Z,1006.08
2018-02-22T07:03:51.237Z,1006.09
2018-02-22T07:04:51.217Z,1006.07
2018-02-22T07:05:51.271Z,1006.02
2018-02-22T07:06:51.177Z,1006.04
2018-02-22T07:07:51.157Z,1006.03
2018-02-22T07:08:51.223Z,1006.06
2018-02-22T07:09:51.117Z,1006.08
2018-02-22T07:10:51.097Z,1006.04
2018-02-22T07:12:51.058Z,1006.09
2018-02-22T07:13:51.039Z,1006.10
2018-02-22T07:14:51.064Z,1006.05
2018-02-22T07:15:50.999Z,1006.12
2018-02-22T07:16:50.980Z,1006.10
2018-02-22T07:17:51.168Z,1006.09
2018-02-22T07:18:50.940Z,1006.07
2018-02-22T07:19:50.921Z,1006.10
2018-02-22T07:20:50.923Z,1006.10
2018-02-22T07:21:50.882Z,1006.10
2018-02-22T07:22:50.861Z,1006.09
2018-02-22T07:23:50.866Z,1006.09
2018-02-22T07:24:50.824Z,1006.11
2018-02-22T07:25:50.804Z,1006.13
2018-02-22T07:26:50.787Z,1006.15
2018-02-22T07:27:50.764Z,1006.12
2018-02-22T07:28:50.748Z,1006.11
2018-02-22T07:29:50.730Z,1006.13
2018-02-22T07:30:50.705Z,1006.11
2018-02-22T07:31:50.686Z,1006.13
2018-02-22T07:32:50.701Z,1006.16
2018-02-22T07:33:50.652Z,1006.14
2018-02-22T07:34:50.628Z,1006.13
2018-02-22T07:35:50.615Z,1006.17
2018-02-22T07:36:50.592Z,1006.14
2018-02-22T07:37:50.572Z,1006.12
2018-02-22T07:38:50.556Z,1006.12
2018-02-22T07:39:50.533Z,1006.10
2018-02-22T07:40:50.760Z,1006.13
2018-02-22T07:41:50.496Z,1006.15
2018-02-22T07:42:50.476Z,1006.17
2018-02-22T07:43:50.494Z,1006.15
2018-02-22T07:44:50.438Z,1006.16
2018-02-22T07:45:50.421Z,1006.15
2018-02-22T07:47:50.382Z,1006.22
2018-02-22T07:48:50.364Z,1006.23
2018-02-22T07:50:50.368Z,1006.22
2018-02-22T07:51:50.308Z,1006.23
2018-02-22T07:52:50.492Z,1006.30
2018-02-22T07:53:50.272Z,1006.27
2018-02-22T07:54:50.253Z,1006.31
2018-02-22T07:55:50.234Z,1006.33
2018-02-22T07:56:50.228Z,1006.29
2018-02-22T07:57:50.200Z,1006.35
2018-02-22T07:58:50.182Z,1006.40
2018-02-22T07:59:50.172Z,1006.41
2018-02-22T08:00:50.163Z,1006.44
2018-02-22T08:01:50.133Z,1006.44
2018-02-22T08:02:50.117Z,1006.45
2018-02-22T08:03:50.102Z,1006.46
2018-02-22T08:04:50.087Z,1006.46
2018-02-22T08:05:50.072Z,1006.47
2018-02-22T08:06:50.058Z,1006.44
2018-02-22T08:07:50.045Z,1006.48
2018-02-22T08:08:50.236Z,1006.46
2018-02-22T08:09:50.019Z,1006.50
2018-02-22T08:10:50.004Z,1006.52
2018-02-22T08:11:50.058Z,1006.52
2018-02-22T08:12:49.979Z,1006.52
2018-02-22T08:13:49.966Z,1006.55
2018-02-22T08:14:50.002Z,1006.56
2018-02-22T08:15:49.941Z,1006.57
2018-02-22T08:16:49.932Z,1006.58
2018-02-22T08:17:49.962Z,1006.57
2018-02-22T08:18:49.906Z,1006.60
2018-02-22T08:19:49.893Z,1006.58
2018-02-22T08:20:49.884Z,1006.55
2018-02-22T08:21:49.872Z,1006.59
2018-02-22T08:22:49.859Z,1006.55
2018-02-22T08:23:49.849Z,1006.59
2018-02-22T08:24:49.839Z,1006.59
2018-02-22T08:25:50.085Z,1006.65
2018-02-22T08:26:49.819Z,1006.61
2018-02-22T08:27:49.820Z,1006.61
2018-02-22T08:29:49.787Z,1006.60
2018-02-22T08:30:49.777Z,1006.61
2018-02-22T08:31:49.806Z,1006.61
2018-02-22T08:32:49.756Z,1006.58
2018-02-22T08:33:49.748Z,1006.63
2018-02-22T08:34:49.738Z,1006.64
2018-02-22T08:35:49.728Z,1006.63
2018-02-22T08:36:49.719Z,1006.66
2018-02-22T08:37:49.710Z,1006.60
2018-02-22T08:38:49.704Z,1006.59
2018-02-22T08:39:49.691Z,1006.58
2018-02-22T08:40:49.682Z,1006.57
2018-02-22T08:41:49.674Z,1006.57
2018-02-22T08:42:49.769Z,1006.55
2018-02-22T08:43:49.656Z,1006.54
2018-02-22T08:44:49.673Z,1006.56
2018-02-22T08:45:49.688Z,1006.56
2018-02-22T08:46:49.634Z,1006.55
2018-02-22T08:47:49.623Z,1006.54
2018-02-22T08:48:49.616Z,1006.58
2018-02-22T08:49:49.608Z,1006.58
2018-02-22T08:50:49.598Z,1006.61
2018-02-22T08:51:49.591Z,1006.57
2018-02-22T08:52:49.583Z,1006.56
2018-02-22T08:53:49.575Z,1006.60
2018-02-22T08:54:49.569Z,1006.59
2018-02-22T08:55:49.560Z,1006.59
2018-02-22T08:56:49.756Z,1006.57
2018-02-22T08:57:49.547Z,1006.62
2018-02-22T08:58:49.537Z,1006.64
2018-02-22T08:59:49.533Z,1006.68
2018-02-22T09:00:49.540Z,1006.67
2018-02-22T09:01:49.516Z,1006.65
2018-02-22T09:02:49.508Z,1006.67
2018-02-22T09:03:49.503Z,1006.66
2018-02-22T09:04:49.494Z,1006.67
2018-02-22T09:05:49.488Z,1006.69
2018-02-22T09:06:49.480Z,1006.68
2018-02-22T09:07:49.474Z,1006.66
2018-02-22T09:08:49.670Z,1006.64
2018-02-22T09:09:49.461Z,1006.63
2018-02-22T09:10:49.453Z,1006.66
2018-02-22T09:11:49.493Z,1006.62
2018-02-22T09:12:49.442Z,1006.64
2018-02-22T09:13:49.435Z,1006.64
2018-02-22T09:14:49.442Z,1006.55
2018-02-22T09:15:49.423Z,1006.56
2018-02-22T09:16:49.418Z,1006.55
2018-02-22T09:17:49.411Z,1006.53
2018-02-22T09:18:49.406Z,1006.45
2018-02-22T09:19:49.482Z,1006.48
2018-02-22T09:20:49.395Z,1006.49
2018-02-22T09:21:49.389Z,1006.45
2018-02-22T09:22:49.588Z,1006.42
2018-02-22T09:23:49.378Z,1006.46
2018-02-22T09:24:49.372Z,1006.46
2018-02-22T09:25:49.402Z,1006.47
2018-02-22T09:26:49.362Z,1006.48
2018-02-22T09:27:49.364Z,1006.44
2018-02-22T09:28:49.355Z,1006.48
2018-02-22T09:29:49.349Z,1006.48
2018-02-22T09:30:49.341Z,1006.47
2018-02-22T09:31:49.336Z,1006.54
2018-02-22T09:32:49.331Z,1006.55
2018-02-22T09:33:49.404Z,1006.57
2018-02-22T09:34:49.323Z,1006.59
2018-02-22T09:35:49.317Z,1006.58
2018-02-22T09:36:49.349Z,1006.57
2018-02-22T09:37:49.309Z,1006.59
2018-02-22T09:38:49.303Z,1006.62
2018-02-22T09:39:49.299Z,1006.60
2018-02-22T09:40:49.295Z,1006.62
2018-02-22T09:41:49.291Z,1006.62
2018-02-22T09:42:49.289Z,1006.61
2018-02-22T09:43:49.288Z,1006.56
2018-02-22T09:44:49.482Z,1006.56
2018-02-22T09:45:49.275Z,1006.60
2018-02-22T09:46:49.270Z,1006.63
2018-02-22T09:47:49.470Z,1006.60
2018-02-22T09:48:49.262Z,1006.61
2018-02-22T09:49:49.259Z,1006.64
2018-02-22T09:50:49.253Z,1006.58
2018-02-22T09:51:49.253Z,1006.56
2018-02-22T09:52:49.247Z,1006.62
2018-02-22T09:53:49.250Z,1006.62
2018-02-22T09:54:49.238Z,1006.60
2018-02-22T09:55:49.238Z,1006.60
2018-02-22T09:56:49.233Z,1006.61
2018-02-22T09:57:49.229Z,1006.61
2018-02-22T09:58:49.231Z,1006.62
2018-02-22T09:59:49.218Z,1006.64
2018-02-22T10:00:49.214Z,1006.61
2018-02-22T10:01:49.215Z,1006.63
2018-02-22T10:02:49.209Z,1006.70
2018-02-22T10:03:49.204Z,1006.66
2018-02-22T10:04:49.202Z,1006.64
2018-02-22T10:05:49.199Z,1006.62
2018-02-22T10:06:49.394Z,1006.62
2018-02-22T10:07:49.187Z,1006.57
2018-02-22T10:08:49.183Z,1006.62
2018-02-22T10:09:49.197Z,1006.57
2018-02-22T10:10:49.174Z,1006.62
2018-02-22T10:11:49.171Z,1006.65
2018-02-22T10:12:49.199Z,1006.63
2018-02-22T10:13:49.163Z,1006.68
2018-02-22T10:14:49.159Z,1006.68
2018-02-22T10:15:49.156Z,1006.65
2018-02-22T10:16:49.153Z,1006.82
2018-02-22T10:17:49.232Z,1006.66
2018-02-22T10:18:49.145Z,1006.70
2018-02-22T10:19:49.144Z,1006.63
2018-02-22T10:20:49.188Z,1006.64
2018-02-22T10:21:49.134Z,1006.68
2018-02-22T10:22:49.130Z,1006.69
2018-02-22T10:23:49.128Z,1006.65
2018-02-22T10:24:49.123Z,1006.66
2018-02-22T10:25:49.120Z,1006.63
2018-02-22T10:26:49.116Z,1006.67
2018-02-22T10:27:49.116Z,1006.73
2018-02-22T10:28:49.361Z,1006.65
2018-02-22T10:29:49.107Z,1006.64
2018-02-22T10:30:49.103Z,1006.68
2018-02-22T10:31:49.305Z,1006.64
2018-02-22T10:32:49.098Z,1006.66
2018-02-22T10:33:49.097Z,1006.61
2018-02-22T10:34:49.093Z,1006.62
2018-02-22T10:35:49.093Z,1006.57
2018-02-22T10:36:49.088Z,1006.61
2018-02-22T10:37:49.084Z,1006.61
2018-02-22T10:38:49.080Z,1006.53
2018-02-22T10:39:49.138Z,1006.60
2018-02-22T10:40:49.074Z,1006.52
2018-02-22T10:41:49.071Z,1006.50
2018-02-22T10:43:49.067Z,1006.53
2018-02-22T10:44:49.093Z,1006.50
2018-02-22T10:45:49.086Z,1006.45
2018-02-22T10:46:49.060Z,1006.49
2018-02-22T10:47:49.058Z,1006.48
2018-02-22T10:48:49.057Z,1006.48
2018-02-22T10:49:49.055Z,1006.44
2018-02-22T10:50:49.063Z,1006.44
2018-02-22T10:51:49.051Z,1006.44
2018-02-22T10:52:49.055Z,1006.34
2018-02-22T10:53:49.095Z,1006.38
2018-02-22T10:54:49.051Z,1006.37
2018-02-22T10:55:49.047Z,1006.32
2018-02-22T10:56:49.055Z,1006.34
2018-02-22T10:57:49.040Z,1006.38
2018-02-22T10:58:49.038Z,1006.28
2018-02-22T10:59:49.051Z,1006.29
2018-02-22T11:00:49.088Z,1006.32
2018-02-22T11:01:49.036Z,1006.30
2018-02-22T11:02:49.030Z,1006.33
2018-02-22T11:03:49.028Z,1006.35
2018-02-22T11:04:49.033Z,1006.36
2018-02-22T11:05:49.026Z,1006.35
2018-02-22T11:06:49.022Z,1006.36
2018-02-22T11:07:49.021Z,1006.37
2018-02-22T11:08:49.111Z,1006.42
2018-02-22T11:09:49.019Z,1006.39
2018-02-22T11:10:49.018Z,1006.34
2018-02-22T11:11:49.213Z,1006.35
2018-02-22T11:12:49.015Z,1006.34
2018-02-22T11:13:49.005Z,1006.32
2018-02-22T11:14:49.009Z,1006.36
2018-02-22T11:15:49.001Z,1006.29
2018-02-22T11:16:48.996Z,1006.30
2018-02-22T11:17:48.994Z,1006.31
2018-02-22T11:18:48.991Z,1006.28
2018-02-22T11:19:49.218Z,1006.32
2018-02-22T11:20:48.984Z,1006.28
2018-02-22T11:21:48.984Z,1006.24
2018-02-22T11:22:49.019Z,1006.25
2018-02-22T11:23:48.976Z,1006.23
2018-02-22T11:24:48.976Z,1006.22
2018-02-22T11:25:48.971Z,1006.25
2018-02-22T11:26:48.966Z,1006.19
2018-02-22T11:27:48.962Z,1006.21
2018-02-22T11:28:48.966Z,1006.20
2018-02-22T11:29:48.956Z,1006.19
2018-02-22T11:30:49.154Z,1006.17
2018-02-22T11:31:48.947Z,1006.16
2018-02-22T11:32:48.946Z,1006.15
2018-02-22T11:33:48.983Z,1006.22
2018-02-22T11:34:48.936Z,1006.12
2018-02-22T11:35:48.930Z,1006.13
2018-02-22T11:36:48.927Z,1006.13
2018-02-22T11:37:48.921Z,1006.12
2018-02-22T11:38:48.916Z,1006.11
2018-02-22T11:39:48.911Z,1006.08
2018-02-22T11:40:48.908Z,1006.10
2018-02-22T11:41:48.984Z,1006.13
2018-02-22T11:42:48.897Z,1006.14
2018-02-22T11:43:48.892Z,1006.13
2018-02-22T11:44:48.925Z,1006.11
2018-02-22T11:45:48.886Z,1006.06
2018-02-22T11:46:48.879Z,1006.01
2018-02-22T11:47:48.904Z,1006.00
2018-02-22T11:48:48.866Z,1005.94
2018-02-22T11:49:48.863Z,1005.98
2018-02-22T11:50:48.854Z,1005.97
2018-02-22T11:51:48.878Z,1005.93
2018-02-22T11:52:48.845Z,1005.94
2018-02-22T11:53:48.838Z,1005.91
2018-02-22T11:54:48.832Z,1005.91
2018-02-22T11:55:48.869Z,1005.92
2018-02-22T11:56:48.821Z,1005.83
2018-02-22T11:57:48.817Z,1005.84
2018-02-22T11:58:48.904Z,1005.88
2018-02-22T11:59:48.798Z,1005.81
2018-02-22T12:00:48.791Z,1005.80
2018-02-22T12:01:48.838Z,1005.79
2018-02-22T12:02:48.776Z,1005.81
2018-02-22T12:03:48.770Z,1005.82
2018-02-22T12:04:48.804Z,1005.80
2018-02-22T12:05:48.758Z,1005.82
2018-02-22T12:06:48.752Z,1005.78
2018-02-22T12:07:48.742Z,1005.71
2018-02-22T12:08:48.736Z,1005.75
2018-02-22T12:09:48.732Z,1005.74
2018-02-22T12:10:48.721Z,1005.74